createdAt,value
2022-08-24T00:02:30.361Z,21.6
2022-08-24T00:08:21.893Z,21.9
2022-08-24T00:14:13.607Z,22.1
2022-08-24T00:20:05.869Z,21.6
2022-08-24T00:25:57.275Z,22
2022-08-24T00:31:51.385Z,22.1
2022-08-24T00:37:43.003Z,21.7
2022-08-24T00:43:35.552Z,21.7
2022-08-24T00:49:25.760Z,21.4
2022-08-24T00:55:19.029Z,21.4
2022-08-24T01:01:10.377Z,21.3
2022-08-24T01:07:03.240Z,21.4
2022-08-24T01:13:00.890Z,21.1
2022-08-24T01:18:51.584Z,21.3
2022-08-24T01:24:44.949Z,21.2
2022-08-24T01:30:39.333Z,21.4
2022-08-24T01:36:30.650Z,21.3
2022-08-24T01:42:23.875Z,21
2022-08-24T01:48:15.699Z,20.2
2022-08-24T01:54:14.784Z,20.7
2022-08-24T02:00:05.811Z,20.7
2022-08-24T02:05:58.382Z,20.7
2022-08-24T02:11:51.748Z,20.4
2022-08-24T02:17:44.563Z,20.5
2022-08-24T02:23:35.925Z,20.5
2022-08-24T02:29:27.560Z,20.8
2022-08-24T02:35:19.974Z,20.6
2022-08-24T02:41:10.818Z,20.4
2022-08-24T02:47:03.108Z,20.5
2022-08-24T02:52:56.551Z,20.2
2022-08-24T02:58:47.982Z,20.2
2022-08-24T03:04:45.986Z,20.2
2022-08-24T03:10:41.146Z,20.1
2022-08-24T03:16:32.224Z,20.1
2022-08-24T03:22:22.308Z,20.1
2022-08-24T03:28:15.013Z,20.2
2022-08-24T03:34:13.392Z,20
2022-08-24T03:40:02.462Z,19.9
2022-08-24T03:46:08.488Z,19.6
2022-08-24T03:51:59.695Z,19.7
2022-08-24T03:57:49.565Z,19.6
2022-08-24T04:03:45.839Z,19.4
2022-08-24T04:09:36.616Z,19.8
2022-08-24T04:15:29.026Z,19.6
2022-08-24T04:21:23.403Z,19.5
2022-08-24T04:27:15.397Z,19.3
2022-08-24T04:33:05.701Z,19.5
2022-08-24T04:38:58.845Z,19.2
2022-08-24T04:44:49.947Z,19.3
2022-08-24T04:50:43.785Z,19
2022-08-24T04:56:34.734Z,19.5
2022-08-24T05:02:26.210Z,19.5
2022-08-24T05:08:28.308Z,19.3
2022-08-24T05:14:22.875Z,19.1
2022-08-24T05:20:20.783Z,19.1
2022-08-24T05:26:13.311Z,19.7
2022-08-24T05:32:06.454Z,20
2022-08-24T05:37:57.189Z,21.4
2022-08-24T05:43:50.160Z,23
2022-08-24T05:49:42.719Z,22.4
2022-08-24T05:55:43.320Z,24.3
2022-08-24T06:01:36.586Z,22.8
2022-08-24T06:07:35.371Z,21.9
2022-08-24T06:13:26.479Z,21.7
2022-08-24T06:19:17.561Z,21.7
2022-08-24T06:25:09.187Z,21.3
2022-08-24T06:31:00.648Z,21.8
2022-08-24T06:36:53.924Z,22
2022-08-24T06:42:47.017Z,22
2022-08-24T06:48:38.265Z,22.1
2022-08-24T06:54:29.781Z,22.3
2022-08-24T07:00:21.478Z,22.3
2022-08-24T07:06:13.554Z,22.4
2022-08-24T07:12:05.708Z,22.7
2022-08-24T07:17:56.943Z,22.8
2022-08-24T07:23:47.042Z,22.9
2022-08-24T07:29:56.381Z,23
2022-08-24T07:36:20.910Z,23.1
2022-08-24T07:42:27.098Z,23.5
2022-08-24T07:48:20.001Z,23.7
2022-08-24T07:54:13.054Z,23.8
2022-08-24T08:00:06.723Z,23.9
2022-08-24T08:05:58.052Z,24.3
2022-08-24T08:11:49.130Z,24.4
2022-08-24T08:17:40.910Z,24.6
2022-08-24T08:23:41.101Z,24.8
2022-08-24T08:29:38.541Z,24.9
2022-08-24T08:35:27.195Z,25.2
2022-08-24T08:41:21.207Z,25.2
2022-08-24T08:47:20.474Z,25.3
2022-08-24T08:53:11.382Z,25.6
2022-08-24T08:59:04.244Z,25.7
2022-08-24T09:05:00.793Z,26
2022-08-24T09:10:53.091Z,25.9
2022-08-24T09:16:46.377Z,26
2022-08-24T09:22:39.390Z,26.2
2022-08-24T09:28:31.945Z,26.4
2022-08-24T09:34:25.102Z,26.7
2022-08-24T09:40:15.170Z,26.7
2022-08-24T09:46:06.453Z,27
2022-08-24T09:51:59.516Z,27.3
2022-08-24T09:58:04.500Z,27.4
2022-08-24T10:03:54.769Z,27.4
2022-08-24T10:09:43.969Z,27.6
2022-08-24T10:15:33.250Z,28
2022-08-24T10:21:22.410Z,28.1
2022-08-24T10:27:11.597Z,28.3
2022-08-24T10:33:02.986Z,28.5
2022-08-24T10:38:53.718Z,28.9
2022-08-24T10:44:47.141Z,28.7
2022-08-24T10:50:40.471Z,29
2022-08-24T10:56:32.534Z,28.7
2022-08-24T11:02:25.638Z,29.1
2022-08-24T11:08:18.468Z,29.2
2022-08-24T11:14:09.478Z,29.5
2022-08-24T11:20:02.846Z,29.7
2022-08-24T11:25:54.152Z,30
2022-08-24T11:31:47.471Z,30.2
2022-08-24T11:37:39.099Z,30.4
2022-08-24T11:43:32.229Z,30.3
2022-08-24T11:49:27.519Z,30.7
2022-08-24T11:55:18.386Z,30.4
2022-08-24T12:01:36.124Z,31
2022-08-24T12:13:51.183Z,31
2022-08-24T12:19:52.056Z,31
2022-08-24T12:25:43.490Z,31.3
2022-08-24T12:31:42.470Z,31.2
2022-08-24T12:37:34.757Z,31.5
2022-08-24T12:43:26.012Z,31.4
2022-08-24T12:49:17.847Z,31.5
2022-08-24T12:55:09.790Z,31.5
2022-08-24T13:01:05.363Z,31.6
2022-08-24T13:07:10.665Z,32
2022-08-24T13:13:01.371Z,32
2022-08-24T13:18:53.252Z,32.3
2022-08-24T13:24:45.337Z,32.3
2022-08-24T13:30:42.929Z,32.3
2022-08-24T13:36:43.304Z,32.7
2022-08-24T13:42:35.357Z,32.6
2022-08-24T13:48:26.380Z,32.7
2022-08-24T13:54:20.482Z,32.7
2022-08-24T14:00:19.671Z,32.7
2022-08-24T14:06:09.965Z,32.6
2022-08-24T14:12:09.170Z,32.8
2022-08-24T14:18:02.086Z,32.8
2022-08-24T14:23:56.233Z,33.2
2022-08-24T14:29:47.643Z,33.2
2022-08-24T14:35:39.900Z,33.2
2022-08-24T14:41:33.044Z,32.9
2022-08-24T14:47:24.231Z,32.8
2022-08-24T14:53:17.589Z,33
2022-08-24T14:59:08.310Z,32.6
2022-08-24T15:04:59.892Z,33
2022-08-24T15:10:51.593Z,33
2022-08-24T15:16:42.545Z,33
2022-08-24T16:24:13.784Z,32.9
2022-08-24T16:30:31.225Z,32.8
2022-08-24T17:46:37.335Z,31.7
2022-08-24T17:52:26.757Z,31.5
2022-08-24T17:58:18.450Z,31.2
2022-08-24T18:04:10.863Z,31
2022-08-24T18:10:04.384Z,30.7
2022-08-24T18:15:54.690Z,30.5
2022-08-24T18:21:46.969Z,30.4
2022-08-24T18:27:37.830Z,30.1
2022-08-24T18:33:31.379Z,29.7
2022-08-24T18:39:24.331Z,29.3
2022-08-24T18:45:19.164Z,29
2022-08-24T18:51:12.531Z,28.8
2022-08-24T18:57:27.458Z,28.5
2022-08-24T19:03:18.135Z,28.2
2022-08-24T19:09:09.770Z,27.9
2022-08-24T19:15:02.547Z,27.7
2022-08-24T19:21:23.775Z,27.3
2022-08-24T19:27:13.837Z,27.1
2022-08-24T19:33:13.950Z,26.9
2022-08-24T19:39:03.812Z,26.9
2022-08-24T19:45:00.143Z,26.6
2022-08-24T19:50:52.237Z,26.4
2022-08-24T19:56:42.684Z,26.1
2022-08-24T20:02:34.246Z,26.2
2022-08-24T20:08:23.817Z,25.9
2022-08-24T20:14:13.694Z,25.9
2022-08-24T20:20:04.483Z,25.5
2022-08-24T20:25:57.671Z,25.6
2022-08-24T20:31:48.370Z,25.6
2022-08-24T20:37:45.134Z,25.7
2022-08-24T20:43:35.583Z,25.1
2022-08-24T20:49:28.569Z,25
2022-08-24T20:55:19.512Z,24.8
2022-08-24T21:01:10.616Z,24.9
2022-08-24T21:07:00.859Z,24.5
2022-08-24T21:12:52.550Z,24.6
2022-08-24T21:18:43.635Z,24.6
2022-08-24T21:24:35.822Z,24.2
2022-08-24T21:30:24.718Z,24.6
2022-08-24T21:36:21.642Z,24.5
2022-08-24T21:42:13.617Z,24.4
2022-08-24T21:48:11.107Z,24.2
2022-08-24T21:54:05.462Z,24.2
2022-08-24T21:59:55.180Z,24.2
2022-08-24T22:05:49.600Z,24.3
2022-08-24T22:11:40.839Z,24.2
2022-08-24T22:17:31.048Z,24
2022-08-24T22:23:21.729Z,24.3
2022-08-24T22:29:12.335Z,24.1
2022-08-24T22:35:03.695Z,24.1
2022-08-24T22:40:56.420Z,24.4
2022-08-24T22:46:49.814Z,23.8
2022-08-24T22:52:40.005Z,23.9
2022-08-24T22:58:31.879Z,23.7
2022-08-24T23:04:23.135Z,23.9
2022-08-24T23:10:16.298Z,23.7
2022-08-24T23:16:07.206Z,23.8
2022-08-24T23:22:01.299Z,23.6
2022-08-24T23:27:53.869Z,23.6
2022-08-24T23:33:46.003Z,23.5
2022-08-24T23:39:35.551Z,23.7
2022-08-24T23:45:28.214Z,23.8
2022-08-24T23:53:43.103Z,23.8
2022-08-24T23:59:39.329Z,23.6
